Time;durP1;ratioP1;P1;durP2;ratioP2;P2;SDS_P1;SDS_P2;PMS_P1;PMS_P2;Temp;Humidity;BMP_temperature;BMP_pressure;BME280_temperature;BME280_humidity;BME280_pressure;Samples;Min_cycle;Max_cycle;Signal;HPM_P1;HPM_P2
2023/11/29 00:00:17;;;;;;;9.20;7.80;;;2.40;99.90;;;;;;5015488;28;20427;-70
2023/11/29 00:02:43;;;;;;;9.87;8.87;;;2.50;99.90;;;;;;5015886;28;20168;-71
2023/11/29 00:05:10;;;;;;;9.93;8.90;;;2.60;99.90;;;;;;5015653;28;20251;-70
2023/11/29 00:07:36;;;;;;;9.63;8.67;;;2.70;99.90;;;;;;5015437;28;20163;-70
2023/11/29 00:10:02;;;;;;;9.07;8.17;;;2.80;99.90;;;;;;5015453;28;20465;-70
2023/11/29 00:12:27;;;;;;;10.70;9.63;;;2.80;99.90;;;;;;5014943;28;20781;-70
2023/11/29 00:14:53;;;;;;;9.77;8.70;;;2.70;99.90;;;;;;5015163;28;20418;-69
2023/11/29 00:17:19;;;;;;;10.63;7.90;;;2.70;99.90;;;;;;5015190;28;20251;-69
2023/11/29 00:19:44;;;;;;;9.87;8.87;;;2.70;99.90;;;;;;5015390;28;20270;-69
2023/11/29 00:22:11;;;;;;;11.30;9.63;;;2.80;99.90;;;;;;5015142;28;20473;-69
2023/11/29 00:24:36;;;;;;;9.80;8.80;;;2.80;99.90;;;;;;5015183;28;20183;-69
2023/11/29 00:27:04;;;;;;;11.80;10.63;;;2.80;99.90;;;;;;5015312;28;20412;-69
2023/11/29 00:29:30;;;;;;;10.10;9.00;;;2.60;99.90;;;;;;5014871;28;20603;-68
2023/11/29 00:31:55;;;;;;;10.80;9.70;;;2.70;99.90;;;;;;5015132;28;20537;-69
2023/11/29 00:34:21;;;;;;;9.87;8.83;;;2.70;99.90;;;;;;5014936;28;20403;-69
2023/11/29 00:36:49;;;;;;;11.60;10.40;;;2.60;99.90;;;;;;5015177;28;20259;-69
2023/11/29 00:39:14;;;;;;;10.10;9.20;;;2.60;99.90;;;;;;5014967;28;20168;-69
2023/11/29 00:41:40;;;;;;;9.83;8.83;;;2.40;99.90;;;;;;5014981;28;20529;-70
2023/11/29 00:44:05;;;;;;;9.37;8.50;;;2.40;99.90;;;;;;5014620;28;20714;-68
2023/11/29 00:46:31;;;;;;;10.20;9.20;;;2.50;99.90;;;;;;5014059;28;20254;-69
2023/11/29 00:48:57;;;;;;;10.03;9.03;;;2.40;99.90;;;;;;5014579;28;20585;-69
2023/11/29 00:51:22;;;;;;;10.23;9.20;;;2.50;99.90;;;;;;5014476;28;20564;-69
2023/11/29 00:53:48;;;;;;;10.87;9.50;;;2.30;99.90;;;;;;5014665;28;20434;-68
2023/11/29 00:56:14;;;;;;;11.13;9.90;;;2.30;99.90;;;;;;5014465;28;20211;-69
2023/11/29 00:58:39;;;;;;;13.07;11.53;;;2.30;99.90;;;;;;5014384;28;20816;-69
2023/11/29 01:01:05;;;;;;;9.77;8.77;;;2.30;99.90;;;;;;5014310;28;20658;-69
2023/11/29 01:03:31;;;;;;;11.90;10.70;;;2.30;99.90;;;;;;5014331;28;20673;-68
2023/11/29 01:05:56;;;;;;;9.43;8.43;;;2.30;99.90;;;;;;5014830;28;20204;-68
2023/11/29 01:08:25;;;;;;;13.10;9.97;;;2.30;99.90;;;;;;5014231;28;20266;-69
2023/11/29 01:10:51;;;;;;;10.20;9.23;;;2.30;99.90;;;;;;5012780;28;20203;-69
2023/11/29 01:13:17;;;;;;;12.77;9.93;;;2.20;99.90;;;;;;5013813;28;20902;-69
2023/11/29 01:15:43;;;;;;;12.27;11.00;;;2.10;99.90;;;;;;5014422;28;20498;-68
2023/11/29 01:18:08;;;;;;;11.13;9.70;;;2.10;99.90;;;;;;5013997;28;20395;-69
2023/11/29 01:20:34;;;;;;;11.63;10.43;;;2.10;99.90;;;;;;5013928;28;20561;-69
2023/11/29 01:22:59;;;;;;;11.77;10.47;;;2.00;99.90;;;;;;5013880;28;20545;-69
2023/11/29 01:25:25;;;;;;;11.33;10.13;;;2.00;99.90;;;;;;5013913;28;20709;-69
2023/11/29 01:27:50;;;;;;;12.67;10.17;;;2.00;99.90;;;;;;5014190;28;20579;-69
2023/11/29 01:30:16;;;;;;;11.57;10.37;;;1.90;99.90;;;;;;5014682;28;20203;-70
2023/11/29 01:32:42;;;;;;;12.60;10.90;;;1.90;99.90;;;;;;5013776;28;20172;-69
2023/11/29 01:35:07;;;;;;;12.57;11.20;;;1.90;99.90;;;;;;5013805;28;20666;-71
2023/11/29 01:37:34;;;;;;;11.10;9.50;;;1.80;99.90;;;;;;5013772;28;20211;-70
2023/11/29 01:39:59;;;;;;;12.47;10.67;;;1.90;99.90;;;;;;5013962;28;20187;-70
2023/11/29 01:42:25;;;;;;;12.63;11.30;;;1.90;99.90;;;;;;5014319;28;20886;-70
2023/11/29 01:44:50;;;;;;;12.40;11.10;;;2.00;99.90;;;;;;5013812;28;20483;-70
2023/11/29 01:47:17;;;;;;;12.83;10.43;;;2.00;99.90;;;;;;5014019;28;20636;-69
2023/11/29 01:49:43;;;;;;;13.73;12.30;;;2.10;99.90;;;;;;5013747;28;20200;-70
2023/11/29 01:52:10;;;;;;;12.80;10.90;;;2.20;99.90;;;;;;5013697;28;20446;-71
2023/11/29 01:54:37;;;;;;;12.70;11.23;;;2.20;99.90;;;;;;5013467;28;20408;-70
2023/11/29 01:57:03;;;;;;;13.10;11.73;;;2.10;99.90;;;;;;5013716;28;20457;-70
2023/11/29 01:59:28;;;;;;;12.63;11.17;;;2.20;99.90;;;;;;5013429;28;20426;-69
2023/11/29 02:01:54;;;;;;;13.20;10.70;;;2.30;99.90;;;;;;5013010;28;20442;-70
2023/11/29 02:04:20;;;;;;;10.67;9.37;;;2.30;99.90;;;;;;5013581;28;20654;-69
2023/11/29 02:06:46;;;;;;;11.57;9.97;;;2.30;99.90;;;;;;5014170;28;20204;-70
2023/11/29 02:09:11;;;;;;;14.00;11.17;;;2.30;99.90;;;;;;5014014;28;20187;-70
2023/11/29 02:11:39;;;;;;;12.70;11.07;;;2.30;99.90;;;;;;5013205;28;20470;-69
2023/11/29 02:14:05;;;;;;;11.67;9.03;;;2.20;99.90;;;;;;5013444;28;20226;-70
2023/11/29 02:16:31;;;;;;;9.77;8.70;;;2.20;99.90;;;;;;5013479;28;20407;-70
2023/11/29 02:18:57;;;;;;;11.67;9.60;;;2.10;99.90;;;;;;5013187;28;20410;-68
2023/11/29 02:21:24;;;;;;;12.77;10.40;;;2.00;99.90;;;;;;5011730;28;20283;-69
2023/11/29 02:24:07;;;;;;;13.60;10.50;;;2.00;99.90;;;;;;5013250;28;20175;-69
2023/11/29 02:26:33;;;;;;;13.17;10.90;;;2.00;99.90;;;;;;5013410;28;20744;-68
2023/11/29 02:29:00;;;;;;;12.57;10.83;;;1.90;99.90;;;;;;5012981;28;20411;-70
2023/11/29 02:31:26;;;;;;;13.30;10.70;;;1.80;99.90;;;;;;5012916;28;20241;-67
2023/11/29 02:33:51;;;;;;;12.63;11.03;;;1.80;99.90;;;;;;5013052;28;20494;-70
2023/11/29 02:36:17;;;;;;;14.20;10.23;;;1.70;99.90;;;;;;5013366;28;20176;-69
2023/11/29 02:38:43;;;;;;;11.60;9.90;;;1.60;99.90;;;;;;5013244;28;20213;-69
2023/11/29 02:41:08;;;;;;;11.50;10.30;;;1.50;99.90;;;;;;5013171;28;20190;-69
2023/11/29 02:43:34;;;;;;;12.00;9.63;;;1.50;99.90;;;;;;5012853;28;20176;-69
2023/11/29 02:46:00;;;;;;;12.13;9.97;;;1.50;99.90;;;;;;5012941;28;20175;-69
2023/11/29 02:48:25;;;;;;;10.97;8.60;;;1.40;99.90;;;;;;5012874;28;20179;-69
2023/11/29 02:50:51;;;;;;;9.67;8.40;;;1.40;99.90;;;;;;5012520;28;20203;-69
2023/11/29 02:53:16;;;;;;;12.07;10.23;;;1.30;99.90;;;;;;5013258;28;20166;-69
2023/11/29 02:55:42;;;;;;;10.90;8.57;;;1.20;99.90;;;;;;5012828;28;20172;-69
2023/11/29 02:58:07;;;;;;;11.77;8.97;;;1.10;99.90;;;;;;5012795;28;20255;-69
2023/11/29 03:00:33;;;;;;;12.83;9.60;;;1.10;99.90;;;;;;5012969;28;20550;-69
2023/11/29 03:02:59;;;;;;;10.10;8.90;;;1.10;99.90;;;;;;5013173;28;20207;-69
2023/11/29 03:05:24;;;;;;;9.30;8.37;;;1.10;99.90;;;;;;5013016;28;20722;-69
2023/11/29 03:07:50;;;;;;;9.53;8.53;;;1.10;99.90;;;;;;5012995;28;20182;-69
2023/11/29 03:10:16;;;;;;;8.97;7.20;;;1.00;99.90;;;;;;5012747;28;20191;-69
2023/11/29 03:12:41;;;;;;;10.17;8.17;;;0.90;99.90;;;;;;5012891;28;20164;-69
2023/11/29 03:15:09;;;;;;;9.57;8.00;;;0.80;99.90;;;;;;5016449;28;20171;-68
2023/11/29 03:17:35;;;;;;;8.77;7.00;;;0.90;99.90;;;;;;5016651;28;20253;-69
2023/11/29 03:20:00;;;;;;;9.97;7.63;;;0.90;99.90;;;;;;5016608;28;20865;-68
2023/11/29 03:22:26;;;;;;;8.97;7.97;;;0.90;99.90;;;;;;5016086;28;20408;-69
2023/11/29 03:24:51;;;;;;;9.60;8.30;;;0.80;99.90;;;;;;5016216;28;20494;-69
2023/11/29 03:27:18;;;;;;;9.10;7.33;;;0.80;99.90;;;;;;5016457;28;20202;-69
2023/11/29 03:29:44;;;;;;;10.00;7.90;;;0.80;99.90;;;;;;5016321;28;20290;-70
2023/11/29 03:32:10;;;;;;;9.97;7.73;;;0.70;99.90;;;;;;5017024;28;20538;-70
2023/11/29 03:34:36;;;;;;;10.40;7.87;;;0.80;99.90;;;;;;5016202;28;20171;-69
2023/11/29 03:37:01;;;;;;;8.20;6.97;;;0.80;99.90;;;;;;5016051;28;20180;-70
2023/11/29 03:39:27;;;;;;;9.97;8.40;;;0.90;99.90;;;;;;5014842;28;20196;-69
2023/11/29 03:41:52;;;;;;;11.03;8.23;;;0.90;99.90;;;;;;5016143;28;20696;-69
2023/11/29 03:44:18;;;;;;;9.93;8.27;;;0.90;99.90;;;;;;5016216;28;20183;-68
2023/11/29 03:46:43;;;;;;;13.50;9.50;;;0.90;99.90;;;;;;5016142;28;20182;-69
2023/11/29 03:49:09;;;;;;;8.33;7.40;;;0.90;99.90;;;;;;5015878;28;20182;-69
2023/11/29 03:51:34;;;;;;;11.10;7.80;;;0.80;99.90;;;;;;5015744;28;20203;-70
2023/11/29 03:54:00;;;;;;;11.10;8.70;;;0.90;99.90;;;;;;5015916;28;20175;-70
2023/11/29 03:56:25;;;;;;;11.87;9.23;;;1.00;99.90;;;;;;5015809;28;20168;-70
2023/11/29 03:58:51;;;;;;;10.97;8.87;;;1.00;99.90;;;;;;5014369;28;20181;-69
2023/11/29 04:01:16;;;;;;;11.63;8.60;;;1.10;99.90;;;;;;5015417;28;20203;-69
2023/11/29 04:03:42;;;;;;;11.20;9.00;;;1.10;99.90;;;;;;5015688;28;20178;-69
2023/11/29 04:06:08;;;;;;;11.30;9.10;;;1.10;99.90;;;;;;5014272;28;20663;-69
2023/11/29 04:08:35;;;;;;;10.73;9.10;;;1.20;99.90;;;;;;5015683;28;20635;-70
2023/11/29 04:11:00;;;;;;;12.77;8.73;;;1.20;99.90;;;;;;5015411;28;20196;-69
2023/11/29 04:13:26;;;;;;;11.77;10.23;;;1.20;99.90;;;;;;5015351;28;20415;-69
2023/11/29 04:15:51;;;;;;;12.10;9.30;;;1.20;99.90;;;;;;5015154;28;20175;-71
2023/11/29 04:18:17;;;;;;;12.13;9.20;;;1.00;99.90;;;;;;5015074;28;20263;-69
2023/11/29 04:20:42;;;;;;;13.00;9.60;;;1.00;99.90;;;;;;5015620;28;20196;-69
2023/11/29 04:23:08;;;;;;;10.43;8.47;;;1.00;99.90;;;;;;5015499;28;20168;-69
2023/11/29 04:25:34;;;;;;;14.13;10.53;;;1.10;99.90;;;;;;5014516;28;20190;-70
2023/11/29 04:28:00;;;;;;;11.77;9.90;;;1.20;99.90;;;;;;5014981;28;20509;-69
2023/11/29 04:30:26;;;;;;;14.00;10.77;;;1.10;99.90;;;;;;5014622;28;20681;-70
2023/11/29 04:32:52;;;;;;;14.27;10.20;;;1.20;99.90;;;;;;5014968;28;20407;-68
2023/11/29 04:35:17;;;;;;;14.50;10.20;;;1.20;99.90;;;;;;5015109;28;20399;-70
2023/11/29 04:37:43;;;;;;;15.03;10.60;;;1.20;99.90;;;;;;5016082;28;20176;-70
2023/11/29 04:40:08;;;;;;;13.17;10.60;;;1.30;99.90;;;;;;5015393;28;20188;-70
2023/11/29 04:42:34;;;;;;;13.87;10.67;;;1.40;99.90;;;;;;5014768;28;20172;-70
2023/11/29 04:44:59;;;;;;;16.27;11.63;;;1.50;99.90;;;;;;5014551;28;20185;-70
2023/11/29 04:47:25;;;;;;;12.33;10.30;;;1.40;99.90;;;;;;5014089;28;20218;-70
2023/11/29 04:49:51;;;;;;;15.13;11.03;;;1.20;99.90;;;;;;5014568;28;20208;-70
2023/11/29 04:52:17;;;;;;;13.20;10.37;;;1.30;99.90;;;;;;5014970;28;20474;-70
2023/11/29 04:54:43;;;;;;;11.63;9.50;;;1.40;99.90;;;;;;5014712;28;20167;-70
2023/11/29 04:57:09;;;;;;;14.30;10.67;;;1.50;99.90;;;;;;5014689;28;20217;-70
2023/11/29 04:59:37;;;;;;;11.43;9.27;;;1.50;99.90;;;;;;5014311;28;20832;-69
2023/11/29 05:02:03;;;;;;;17.30;10.70;;;1.50;99.90;;;;;;5014406;28;20249;-69
2023/11/29 05:04:28;;;;;;;12.23;9.90;;;1.50;99.90;;;;;;5014361;28;20853;-70
2023/11/29 05:06:54;;;;;;;11.47;9.53;;;1.50;99.90;;;;;;5014653;28;20533;-70
2023/11/29 05:09:20;;;;;;;14.17;10.80;;;1.40;99.90;;;;;;5014159;28;20254;-69
2023/11/29 05:11:45;;;;;;;10.67;9.50;;;1.50;99.90;;;;;;5012871;28;20273;-69
2023/11/29 05:14:11;;;;;;;12.00;9.47;;;1.60;99.90;;;;;;5013935;28;20213;-70
2023/11/29 05:16:36;;;;;;;12.23;9.93;;;1.60;99.90;;;;;;5013909;28;20175;-69
2023/11/29 05:19:02;;;;;;;10.80;9.20;;;1.60;99.90;;;;;;5014334;28;20172;-70
2023/11/29 05:21:27;;;;;;;11.13;8.90;;;1.70;99.90;;;;;;5014274;28;20227;-69
2023/11/29 05:23:53;;;;;;;11.40;9.53;;;1.90;99.90;;;;;;5014168;28;20543;-69
2023/11/29 05:26:18;;;;;;;12.17;10.00;;;1.90;99.90;;;;;;5013972;28;20176;-69
2023/11/29 05:28:44;;;;;;;11.70;8.50;;;1.90;99.90;;;;;;5013981;28;20237;-69
2023/11/29 05:31:10;;;;;;;12.23;9.73;;;1.90;99.90;;;;;;5009416;28;20226;-69
2023/11/29 05:33:35;;;;;;;11.43;9.23;;;1.90;99.90;;;;;;5013959;28;20167;-71
2023/11/29 05:36:01;;;;;;;11.47;8.67;;;2.00;99.90;;;;;;5014188;28;20164;-69
2023/11/29 05:38:26;;;;;;;12.13;9.07;;;2.00;99.90;;;;;;5013013;28;20164;-69
2023/11/29 05:40:52;;;;;;;11.23;9.23;;;2.00;99.90;;;;;;5013964;28;20188;-69
2023/11/29 05:43:17;;;;;;;10.40;8.90;;;2.10;99.90;;;;;;5013808;28;20199;-70
2023/11/29 05:45:43;;;;;;;8.93;7.53;;;2.00;99.90;;;;;;5013789;28;20172;-70
2023/11/29 05:48:08;;;;;;;8.80;7.90;;;2.10;99.90;;;;;;5013716;28;20707;-70
2023/11/29 05:50:35;;;;;;;10.10;8.57;;;2.10;99.90;;;;;;5013579;28;20226;-70
2023/11/29 05:53:02;;;;;;;9.43;8.00;;;2.10;99.90;;;;;;5013886;28;20179;-70
2023/11/29 05:55:27;;;;;;;13.27;9.43;;;2.30;99.90;;;;;;5013571;28;20418;-70
2023/11/29 05:57:53;;;;;;;11.03;8.87;;;2.40;99.90;;;;;;5012739;28;20399;-70
2023/11/29 06:00:19;;;;;;;9.03;7.33;;;2.40;99.90;;;;;;5013803;28;20219;-70
2023/11/29 06:02:45;;;;;;;10.57;8.60;;;2.30;99.90;;;;;;5013643;28;20161;-70
2023/11/29 06:05:10;;;;;;;12.33;8.30;;;2.10;99.90;;;;;;5013748;28;20422;-70
2023/11/29 06:07:37;;;;;;;11.07;8.83;;;2.30;99.90;;;;;;5013405;28;20171;-69
2023/11/29 06:10:04;;;;;;;10.37;8.00;;;2.20;99.90;;;;;;5013579;28;20497;-69
2023/11/29 06:12:31;;;;;;;11.63;9.17;;;2.10;99.90;;;;;;5012797;28;20438;-69
2023/11/29 06:14:56;;;;;;;9.67;8.67;;;2.10;99.90;;;;;;5013259;28;20461;-69
2023/11/29 06:17:23;;;;;;;8.60;7.70;;;2.10;99.90;;;;;;5013269;28;20890;-70
2023/11/29 06:19:49;;;;;;;9.80;8.23;;;2.10;99.90;;;;;;5013511;28;20534;-69
2023/11/29 06:22:14;;;;;;;10.53;8.10;;;2.10;99.90;;;;;;5013375;28;20415;-71
2023/11/29 06:24:40;;;;;;;9.70;8.57;;;2.30;99.90;;;;;;5013023;28;20450;-70
2023/11/29 06:27:06;;;;;;;9.77;8.67;;;2.40;99.90;;;;;;5013141;28;20518;-68
2023/11/29 06:29:31;;;;;;;8.63;7.73;;;2.40;99.90;;;;;;5012768;28;20694;-69
2023/11/29 06:31:57;;;;;;;9.73;7.97;;;2.30;99.90;;;;;;5013105;28;20206;-70
2023/11/29 06:34:23;;;;;;;11.10;9.80;;;2.30;99.90;;;;;;5012959;28;20217;-69
2023/11/29 06:36:49;;;;;;;11.10;8.20;;;2.50;99.90;;;;;;5013314;28;20414;-68
2023/11/29 06:39:17;;;;;;;10.90;9.40;;;2.30;99.90;;;;;;5013423;28;20411;-69
2023/11/29 06:41:47;;;;;;;9.93;8.37;;;2.50;99.90;;;;;;5010339;28;20490;-69
2023/11/29 06:44:13;;;;;;;10.77;8.97;;;2.50;99.90;;;;;;5001585;28;20418;-69
2023/11/29 06:46:39;;;;;;;11.83;9.67;;;2.60;99.90;;;;;;5013545;28;20918;-69
2023/11/29 06:49:09;;;;;;;11.53;8.90;;;2.60;99.90;;;;;;5014787;28;20413;-69
2023/11/29 06:51:35;;;;;;;13.20;10.10;;;2.70;99.90;;;;;;5016935;28;20454;-69
2023/11/29 06:54:01;;;;;;;9.43;8.00;;;2.70;99.90;;;;;;5017029;28;20403;-69
2023/11/29 06:56:27;;;;;;;9.90;8.70;;;2.60;99.90;;;;;;5016877;28;20415;-69
2023/11/29 06:58:53;;;;;;;10.67;9.50;;;2.40;99.90;;;;;;5016918;28;20409;-69
2023/11/29 07:01:18;;;;;;;10.97;9.37;;;2.40;99.90;;;;;;5016921;28;20188;-68
2023/11/29 07:03:44;;;;;;;9.77;8.30;;;2.50;99.90;;;;;;5016607;28;20168;-69
2023/11/29 07:06:19;;;;;;;13.70;10.13;;;2.70;99.90;;;;;;5016736;28;20206;-69
2023/11/29 07:08:46;;;;;;;11.37;10.00;;;2.70;99.90;;;;;;5016753;28;20178;-69
2023/11/29 07:11:12;;;;;;;14.10;11.00;;;2.70;99.90;;;;;;5016776;28;20450;-69
2023/11/29 07:13:37;;;;;;;11.27;9.70;;;2.70;99.90;;;;;;5015974;28;20418;-70
2023/11/29 07:16:03;;;;;;;11.87;9.30;;;2.50;99.90;;;;;;5016348;28;20168;-70
2023/11/29 07:18:29;;;;;;;10.73;9.20;;;2.60;99.90;;;;;;5016468;28;20176;-69
2023/11/29 07:20:54;;;;;;;10.93;9.00;;;2.50;99.90;;;;;;5016190;28;20517;-68
2023/11/29 07:23:22;;;;;;;11.57;9.13;;;2.50;99.90;;;;;;5016151;28;20179;-68
2023/11/29 07:25:48;;;;;;;11.33;9.43;;;2.60;99.90;;;;;;5016538;28;20214;-69
2023/11/29 07:28:14;;;;;;;10.93;9.17;;;2.60;99.90;;;;;;5016163;28;20407;-69
2023/11/29 07:30:40;;;;;;;11.33;8.70;;;2.70;99.90;;;;;;5015961;28;20500;-69
2023/11/29 07:33:05;;;;;;;11.83;8.93;;;2.70;99.90;;;;;;5016198;28;20439;-69
2023/11/29 07:35:31;;;;;;;8.93;8.03;;;2.60;99.90;;;;;;5015938;28;20533;-69
2023/11/29 07:37:56;;;;;;;10.40;8.50;;;2.80;99.90;;;;;;5016189;28;20168;-68
2023/11/29 07:40:22;;;;;;;10.17;8.40;;;3.00;99.90;;;;;;5015890;28;20287;-68
2023/11/29 07:42:48;;;;;;;9.33;8.07;;;3.00;99.90;;;;;;5016156;28;20187;-69
2023/11/29 07:45:15;;;;;;;11.20;9.30;;;3.10;99.90;;;;;;5018075;28;20176;-70
2023/11/29 07:47:40;;;;;;;10.30;8.70;;;3.10;99.90;;;;;;5016827;28;20742;-69
2023/11/29 07:50:06;;;;;;;8.83;7.93;;;3.10;99.90;;;;;;5015925;28;20517;-69
2023/11/29 07:52:35;;;;;;;8.77;7.90;;;2.90;99.90;;;;;;5015871;28;20195;-69
2023/11/29 07:55:02;;;;;;;10.17;8.50;;;2.90;99.90;;;;;;5016092;28;20826;-68
2023/11/29 07:57:28;;;;;;;10.43;8.23;;;2.90;99.90;;;;;;5015829;28;20402;-69
2023/11/29 07:59:54;;;;;;;8.87;7.70;;;3.00;99.90;;;;;;5014347;28;20423;-70
2023/11/29 08:02:19;;;;;;;8.97;8.07;;;2.90;99.90;;;;;;5015211;28;20286;-69
2023/11/29 08:04:45;;;;;;;8.57;7.47;;;2.90;99.90;;;;;;5015429;28;20203;-69
2023/11/29 08:07:10;;;;;;;7.53;6.70;;;2.80;99.90;;;;;;5015323;28;20179;-68
2023/11/29 08:09:36;;;;;;;9.07;7.93;;;3.00;99.90;;;;;;5015239;28;20714;-70
2023/11/29 08:12:01;;;;;;;8.93;7.90;;;2.90;99.90;;;;;;5015115;28;20643;-69
2023/11/29 08:14:27;;;;;;;9.10;7.73;;;2.90;99.90;;;;;;5015478;28;20541;-70
2023/11/29 08:16:52;;;;;;;7.97;7.17;;;2.90;99.90;;;;;;5015407;28;20171;-69
2023/11/29 08:19:18;;;;;;;8.30;7.37;;;2.90;99.90;;;;;;5014998;28;20169;-71
2023/11/29 08:21:43;;;;;;;9.77;7.97;;;2.90;99.90;;;;;;5015100;28;20176;-71
2023/11/29 08:24:09;;;;;;;8.07;6.63;;;2.90;99.90;;;;;;5015285;28;20251;-69
2023/11/29 08:26:35;;;;;;;8.40;7.60;;;2.80;99.90;;;;;;5015307;28;20175;-72
2023/11/29 08:29:01;;;;;;;9.83;7.60;;;2.90;99.90;;;;;;5014973;28;20271;-72
2023/11/29 08:31:27;;;;;;;8.83;7.10;;;3.00;99.90;;;;;;5015329;28;20567;-72
2023/11/29 08:33:52;;;;;;;7.60;6.70;;;3.10;99.90;;;;;;5015373;28;20160;-71
2023/11/29 08:36:19;;;;;;;7.43;6.60;;;3.20;99.90;;;;;;5015070;28;20407;-72
2023/11/29 08:38:47;;;;;;;7.70;6.50;;;3.20;99.90;;;;;;5014751;28;20418;-72
2023/11/29 08:41:13;;;;;;;7.57;6.77;;;3.00;99.90;;;;;;5015055;28;20423;-72
2023/11/29 08:43:38;;;;;;;8.57;7.17;;;3.00;99.90;;;;;;5014925;28;20430;-73
2023/11/29 08:46:04;;;;;;;8.63;6.60;;;3.20;99.90;;;;;;5014388;28;20534;-72
2023/11/29 08:48:30;;;;;;;7.93;7.13;;;3.20;99.90;;;;;;5014639;28;20214;-70
2023/11/29 08:50:55;;;;;;;7.20;5.93;;;3.30;99.90;;;;;;5014499;28;20192;-71
2023/11/29 08:53:22;;;;;;;7.30;6.60;;;3.40;99.90;;;;;;5014656;28;20539;-71
2023/11/29 08:55:48;;;;;;;7.30;6.60;;;3.40;99.90;;;;;;5014684;28;20535;-70
2023/11/29 08:58:13;;;;;;;7.00;6.03;;;3.50;99.90;;;;;;5014181;28;20411;-69
2023/11/29 09:00:41;;;;;;;6.73;6.13;;;3.40;99.90;;;;;;5014371;28;20192;-70
2023/11/29 09:03:10;;;;;;;7.33;6.60;;;3.40;99.90;;;;;;5014976;28;20177;-70
2023/11/29 09:05:36;;;;;;;6.37;5.80;;;3.40;99.90;;;;;;5014351;28;20395;-71
2023/11/29 09:08:03;;;;;;;6.67;5.97;;;3.30;99.90;;;;;;5014906;28;20409;-71
2023/11/29 09:10:29;;;;;;;7.53;6.73;;;3.50;99.90;;;;;;5014507;28;20562;-72
2023/11/29 09:12:54;;;;;;;6.20;5.60;;;3.60;99.90;;;;;;5014358;28;20767;-71
2023/11/29 09:15:20;;;;;;;6.93;6.23;;;3.70;99.90;;;;;;5014432;28;20438;-72
2023/11/29 09:17:46;;;;;;;7.07;6.13;;;3.80;99.90;;;;;;5014206;28;20195;-72
2023/11/29 09:20:12;;;;;;;7.27;5.67;;;3.70;99.90;;;;;;5012650;28;20431;-72
2023/11/29 09:22:38;;;;;;;6.43;5.83;;;3.60;99.90;;;;;;5013515;28;20264;-70
2023/11/29 09:25:05;;;;;;;7.33;5.60;;;3.50;99.90;;;;;;5013721;28;20176;-70
2023/11/29 09:27:31;;;;;;;7.07;6.37;;;3.50;99.90;;;;;;5012396;28;20541;-71
2023/11/29 09:29:56;;;;;;;6.50;5.90;;;3.70;99.90;;;;;;5013520;28;20450;-70
2023/11/29 09:32:22;;;;;;;5.87;5.30;;;3.70;99.90;;;;;;5013648;28;20242;-70
2023/11/29 09:34:47;;;;;;;7.73;6.93;;;3.60;99.90;;;;;;5013725;28;20667;-73
2023/11/29 09:37:13;;;;;;;5.77;5.27;;;3.80;99.90;;;;;;5013777;28;20178;-71
2023/11/29 09:39:39;;;;;;;7.13;6.43;;;3.80;99.90;;;;;;5013824;28;20222;-70
2023/11/29 09:42:04;;;;;;;7.20;6.47;;;3.80;99.90;;;;;;5014052;28;20168;-71
2023/11/29 09:44:32;;;;;;;6.57;5.90;;;3.90;99.90;;;;;;5014038;28;20172;-72
2023/11/29 09:46:58;;;;;;;6.40;5.60;;;3.90;99.90;;;;;;5013715;28;20496;-71
2023/11/29 09:49:26;;;;;;;6.13;5.60;;;4.00;99.90;;;;;;5006688;28;20419;-72
2023/11/29 09:51:51;;;;;;;6.50;5.90;;;3.90;99.90;;;;;;5003974;28;20466;-71
2023/11/29 09:54:17;;;;;;;6.93;6.23;;;3.80;99.90;;;;;;5003985;28;20410;-73
2023/11/29 09:56:43;;;;;;;8.63;6.40;;;3.60;99.90;;;;;;5003825;28;20250;-70
2023/11/29 09:59:09;;;;;;;6.20;5.60;;;3.50;99.90;;;;;;5003441;28;20494;-69
2023/11/29 10:01:45;;;;;;;6.63;6.03;;;3.70;99.90;;;;;;5009656;28;20677;-70
2023/11/29 10:04:11;;;;;;;6.57;5.53;;;3.90;99.90;;;;;;5012913;28;20160;-71
2023/11/29 10:06:36;;;;;;;6.77;6.07;;;3.60;99.90;;;;;;5013244;28;20414;-72
2023/11/29 10:09:11;;;;;;;6.27;5.67;;;3.60;99.90;;;;;;5005336;28;20184;-73
2023/11/29 10:11:37;;;;;;;6.70;5.90;;;3.70;99.90;;;;;;5004155;28;20246;-72
2023/11/29 10:14:05;;;;;;;8.53;5.60;;;3.60;99.90;;;;;;5003790;28;20502;-71
2023/11/29 10:16:32;;;;;;;5.67;5.17;;;3.50;99.90;;;;;;5003597;28;20913;-70
2023/11/29 10:18:58;;;;;;;6.20;5.60;;;3.80;99.90;;;;;;5003739;28;20418;-71
2023/11/29 10:21:24;;;;;;;6.10;5.50;;;4.00;99.90;;;;;;5003402;28;20445;-72
2023/11/29 10:23:50;;;;;;;7.70;5.23;;;4.20;99.90;;;;;;5003273;28;20414;-69
2023/11/29 10:26:16;;;;;;;6.37;5.77;;;4.30;99.90;;;;;;5003618;28;20180;-69
2023/11/29 10:28:41;;;;;;;6.43;5.37;;;4.40;99.90;;;;;;5003997;28;20179;-69
2023/11/29 10:31:08;;;;;;;5.70;5.03;;;4.70;99.90;;;;;;5003410;28;20239;-69
2023/11/29 10:33:34;;;;;;;5.30;4.77;;;4.90;99.90;;;;;;5003717;28;20207;-70
2023/11/29 10:36:01;;;;;;;5.80;5.23;;;5.10;99.90;;;;;;5012375;28;20869;-69
2023/11/29 10:38:29;;;;;;;11.93;5.53;;;5.00;99.90;;;;;;5006715;28;20411;-69
2023/11/29 10:40:57;;;;;;;6.87;5.63;;;5.10;99.90;;;;;;5003863;28;20440;-72
2023/11/29 10:43:30;;;;;;;6.00;5.07;;;5.10;99.90;;;;;;5003712;28;20422;-69
2023/11/29 10:46:25;;;;;;;6.10;5.40;;;5.10;99.90;;;;;;5003827;28;20419;-68
2023/11/29 10:49:12;;;;;;;5.13;4.63;;;5.30;99.90;;;;;;5001277;28;20427;-69
2023/11/29 10:51:39;;;;;;;5.70;5.20;;;5.10;99.90;;;;;;5003200;28;20462;-71
2023/11/29 10:54:07;;;;;;;6.30;5.40;;;5.30;99.90;;;;;;5003089;28;20408;-69
2023/11/29 10:56:34;;;;;;;6.50;4.63;;;5.30;99.90;;;;;;5003063;28;20411;-69
2023/11/29 10:59:21;;;;;;;5.00;4.50;;;5.30;99.90;;;;;;5003444;28;20489;-70
2023/11/29 11:01:47;;;;;;;5.83;5.27;;;5.10;99.90;;;;;;5003543;28;20480;-69
2023/11/29 11:04:13;;;;;;;4.00;3.60;;;5.10;99.90;;;;;;5003092;28;20507;-69
2023/11/29 11:06:39;;;;;;;5.07;4.43;;;4.90;99.90;;;;;;5003706;28;20185;-69
2023/11/29 11:09:33;;;;;;;4.73;4.33;;;5.10;99.90;;;;;;5003241;28;20450;-69
2023/11/29 11:11:59;;;;;;;4.73;4.30;;;5.10;99.90;;;;;;5003565;28;20460;-69
2023/11/29 11:14:27;;;;;;;5.27;4.77;;;5.10;99.90;;;;;;5003242;28;20518;-69
2023/11/29 11:17:27;;;;;;;5.23;4.73;;;5.30;99.90;;;;;;5003730;28;20759;-69
2023/11/29 11:19:52;;;;;;;4.67;3.83;;;5.30;99.90;;;;;;5003101;28;20439;-69
2023/11/29 11:22:24;;;;;;;4.90;4.50;;;5.20;99.90;;;;;;5003180;28;20422;-69
2023/11/29 11:25:15;;;;;;;4.40;4.00;;;5.30;99.90;;;;;;5002917;28;20204;-69
2023/11/29 11:27:47;;;;;;;4.87;4.37;;;5.00;99.90;;;;;;5003323;28;20407;-70
2023/11/29 11:30:18;;;;;;;4.57;4.17;;;5.20;99.90;;;;;;5004742;28;20969;-68
2023/11/29 11:32:50;;;;;;;3.73;3.40;;;5.40;99.90;;;;;;5012150;28;20546;-68
2023/11/29 11:35:16;;;;;;;5.27;4.77;;;5.40;99.90;;;;;;5013422;28;20420;-69
2023/11/29 11:37:49;;;;;;;4.90;3.93;;;5.90;99.90;;;;;;5016075;28;20774;-69
2023/11/29 11:40:16;;;;;;;5.10;4.60;;;6.10;99.90;;;;;;5016128;28;20191;-68
2023/11/29 11:42:43;;;;;;;4.77;4.27;;;6.30;99.90;;;;;;5015914;28;20472;-69
2023/11/29 11:45:09;;;;;;;3.73;3.33;;;6.50;99.90;;;;;;5015745;28;20406;-68
2023/11/29 11:47:35;;;;;;;4.27;3.60;;;7.30;99.90;;;;;;5016017;28;20524;-69
2023/11/29 11:50:02;;;;;;;3.07;2.87;;;9.00;99.90;;;;;;5015946;28;20774;-67
2023/11/29 11:52:27;;;;;;;3.80;3.33;;;10.60;99.80;;;;;;5011570;28;20518;-69
2023/11/29 11:54:53;;;;;;;4.17;3.77;;;10.60;96.90;;;;;;5006591;28;20426;-70
2023/11/29 11:57:19;;;;;;;2.90;2.70;;;12.00;95.80;;;;;;5006248;28;20174;-73
2023/11/29 11:59:44;;;;;;;3.93;3.03;;;13.10;94.10;;;;;;5006098;28;20702;-74
2023/11/29 12:02:10;;;;;;;3.73;3.43;;;13.80;91.10;;;;;;5015294;28;20176;-72
2023/11/29 12:04:36;;;;;;;4.37;3.60;;;13.70;90.00;;;;;;5013447;28;20185;-73
2023/11/29 12:07:06;;;;;;;3.90;3.50;;;14.50;88.30;;;;;;5006230;28;20422;-72
2023/11/29 12:09:33;;;;;;;5.93;3.40;;;13.50;83.80;;;;;;5006598;28;20202;-72
2023/11/29 12:12:12;;;;;;;3.53;3.23;;;13.60;86.20;;;;;;5012625;28;20861;-72
2023/11/29 12:14:51;;;;;;;3.43;3.13;;;12.10;87.60;;;;;;5015374;28;20415;-74
2023/11/29 12:17:18;;;;;;;3.30;3.00;;;11.90;89.20;;;;;;5014857;28;20440;-72
2023/11/29 12:19:48;;;;;;;3.60;3.30;;;11.10;90.90;;;;;;5015628;28;20859;-73
2023/11/29 12:22:15;;;;;;;4.10;3.80;;;10.70;91.80;;;;;;5015189;28;20410;-71
2023/11/29 12:24:46;;;;;;;3.93;3.63;;;10.50;91.60;;;;;;5014020;28;20464;-70
2023/11/29 12:27:19;;;;;;;4.03;3.43;;;9.50;93.80;;;;;;5015333;28;20400;-71
2023/11/29 12:29:47;;;;;;;4.10;3.73;;;8.40;95.10;;;;;;5015037;28;20829;-73
2023/11/29 12:32:17;;;;;;;4.20;3.80;;;7.80;97.50;;;;;;5015044;28;20461;-70
2023/11/29 12:34:43;;;;;;;3.77;3.40;;;7.60;98.90;;;;;;5015329;28;20414;-69
2023/11/29 12:37:12;;;;;;;4.03;3.63;;;7.30;99.80;;;;;;5014995;28;20787;-69
2023/11/29 12:39:38;;;;;;;4.17;3.77;;;7.10;99.90;;;;;;5014701;28;20426;-69
2023/11/29 12:42:05;;;;;;;5.83;3.90;;;6.70;99.90;;;;;;5015200;28;20908;-69
2023/11/29 12:44:34;;;;;;;4.27;3.87;;;6.70;99.90;;;;;;5014908;28;20425;-68
2023/11/29 12:47:00;;;;;;;4.20;3.63;;;6.60;99.90;;;;;;5014219;28;20416;-67